Time;durP1;ratioP1;P1;durP2;ratioP2;P2;SDS_P1;SDS_P2;PMS_P1;PMS_P2;Temp;Humidity;BMP_temperature;BMP_pressure;BME280_temperature;BME280_humidity;BME280_pressure;Samples;Min_cycle;Max_cycle;Signal;HPM_P1;HPM_P2
2022/12/06 00:00:41;;;;;;;1999.90;999.90;;;;;;;5.70;100.00;97826.69;5056633;28;20030;-78
2022/12/06 00:03:07;;;;;;;1999.90;999.90;;;;;;;5.70;100.00;97827.47;5056350;28;20123;-76
2022/12/06 00:05:32;;;;;;;1999.90;999.90;;;;;;;5.58;100.00;97823.38;5058267;28;20037;-78
2022/12/06 00:07:58;;;;;;;1999.90;999.90;;;;;;;5.56;100.00;97830.97;5061123;28;20035;-77
2022/12/06 00:10:24;;;;;;;1999.90;999.90;;;;;;;5.41;100.00;97826.31;5054236;28;20029;-80
2022/12/06 00:12:49;;;;;;;1999.90;999.90;;;;;;;5.38;100.00;97826.84;5053647;28;20083;-77
2022/12/06 00:15:14;;;;;;;1999.90;999.90;;;;;;;5.49;100.00;97833.09;5053669;28;20033;-77
2022/12/06 00:17:40;;;;;;;1999.90;999.90;;;;;;;5.45;100.00;97835.53;5054147;28;20031;-77
2022/12/06 00:20:06;;;;;;;1999.90;999.90;;;;;;;5.41;100.00;97831.72;5054198;28;20057;-80
2022/12/06 00:22:31;;;;;;;1999.90;999.90;;;;;;;5.53;100.00;97836.91;5053560;28;20438;-78
2022/12/06 00:24:56;;;;;;;1999.90;999.90;;;;;;;5.55;100.00;97845.59;5053351;28;20049;-81
2022/12/06 00:27:22;;;;;;;1999.90;999.90;;;;;;;5.63;100.00;97845.94;5055019;28;20028;-81
2022/12/06 00:29:47;;;;;;;1999.90;999.90;;;;;;;5.69;100.00;97839.44;5055180;28;20017;-80
2022/12/06 00:32:13;;;;;;;1999.90;999.90;;;;;;;5.69;100.00;97830.47;5054002;28;20029;-82
2022/12/06 00:34:38;;;;;;;1999.90;999.90;;;;;;;5.67;100.00;97832.66;5054971;28;20485;-84
2022/12/06 00:37:03;;;;;;;1999.90;999.90;;;;;;;5.63;100.00;97826.13;5055140;28;20056;-82
2022/12/06 00:39:29;;;;;;;1999.90;999.90;;;;;;;5.48;100.00;97815.22;5054320;28;20025;-80
2022/12/06 00:41:55;;;;;;;1999.90;999.90;;;;;;;5.63;100.00;97810.66;5056477;28;20056;-80
2022/12/06 00:44:20;;;;;;;1999.90;999.90;;;;;;;5.74;100.00;97811.47;5056501;28;20033;-78
2022/12/06 00:46:46;;;;;;;1999.90;999.90;;;;;;;5.72;100.00;97816.38;5056468;28;20056;-77
2022/12/06 00:49:11;;;;;;;1999.90;999.90;;;;;;;5.63;100.00;97817.97;5053915;28;20063;-83
2022/12/06 00:51:38;;;;;;;1999.90;999.90;;;;;;;5.67;100.00;97813.66;5055645;28;20032;-81
2022/12/06 00:54:04;;;;;;;1999.90;999.90;;;;;;;5.72;100.00;97829.94;5056011;28;20115;-80
2022/12/06 00:56:30;;;;;;;1999.90;999.90;;;;;;;5.74;100.00;97828.56;5055266;28;20021;-81
2022/12/06 00:58:55;;;;;;;1999.90;999.90;;;;;;;5.69;100.00;97835.91;5055611;28;20033;-82
2022/12/06 01:01:25;;;;;;;1999.90;999.90;;;;;;;5.67;100.00;97819.06;5054894;28;20033;-80
2022/12/06 01:04:01;;;;;;;1999.90;999.90;;;;;;;5.66;100.00;97826.41;5053586;28;20040;-80
2022/12/06 01:06:29;;;;;;;1999.90;999.90;;;;;;;5.73;100.00;97815.28;5054168;28;20041;-80
2022/12/06 01:08:56;;;;;;;1999.90;999.90;;;;;;;5.84;100.00;97825.91;5053242;28;20108;-79
2022/12/06 01:11:22;;;;;;;1999.90;999.90;;;;;;;5.77;100.00;97825.34;5054243;28;20029;-80
2022/12/06 01:13:49;;;;;;;1999.90;999.90;;;;;;;5.82;100.00;97840.81;5054026;28;20037;-81
2022/12/06 01:16:17;;;;;;;1999.90;999.90;;;;;;;5.83;100.00;97826.97;5054595;28;20120;-78
2022/12/06 01:18:44;;;;;;;1999.90;999.90;;;;;;;5.83;100.00;97815.28;5060856;28;20035;-81
2022/12/06 01:21:12;;;;;;;1999.90;999.90;;;;;;;5.80;100.00;97818.53;5060273;28;20025;-83
2022/12/06 01:23:38;;;;;;;1999.90;999.90;;;;;;;5.80;100.00;97810.41;5061366;28;20501;-85
2022/12/06 01:26:04;;;;;;;1999.90;999.90;;;;;;;5.81;100.00;97807.44;5060972;28;20028;-83
2022/12/06 01:28:30;;;;;;;1999.90;999.90;;;;;;;5.66;100.00;97803.88;5062289;28;20367;-83
2022/12/06 01:30:56;;;;;;;1999.90;999.90;;;;;;;5.67;100.00;97795.44;5062358;28;20028;-85
2022/12/06 01:33:22;;;;;;;1999.90;999.90;;;;;;;5.72;100.00;97800.91;5063254;28;20033;-80
2022/12/06 01:35:47;;;;;;;1999.90;999.90;;;;;;;5.77;100.00;97798.19;5062083;28;20090;-86
2022/12/06 01:38:12;;;;;;;1999.90;999.90;;;;;;;5.78;100.00;97794.41;5062724;28;20025;-84
2022/12/06 01:40:40;;;;;;;1999.90;999.90;;;;;;;5.90;100.00;97800.44;5060346;28;20029;-84
2022/12/06 01:43:25;;;;;;;1999.90;999.90;;;;;;;5.78;100.00;97791.69;5062799;28;20032;-78
2022/12/06 01:45:51;;;;;;;1999.90;999.90;;;;;;;5.80;100.00;97797.66;5053267;28;20025;-84
2022/12/06 01:48:16;;;;;;;1999.90;999.90;;;;;;;5.83;100.00;97796.28;5053952;28;20100;-78
2022/12/06 01:50:42;;;;;;;1999.90;999.90;;;;;;;5.78;100.00;97783.56;5057568;28;20025;-79
2022/12/06 01:53:11;;;;;;;1999.90;999.90;;;;;;;5.80;100.00;97775.94;5056560;28;20486;-79
2022/12/06 01:55:38;;;;;;;1999.90;999.90;;;;;;;5.87;100.00;97794.72;5052818;28;20044;-79
2022/12/06 01:58:11;;;;;;;1999.90;999.90;;;;;;;5.88;100.00;97793.66;5052051;28;20044;-79
2022/12/06 02:00:37;;;;;;;1999.90;999.90;;;;;;;5.83;100.00;97788.97;5051772;28;20068;-77
2022/12/06 02:03:06;;;;;;;1999.90;999.90;;;;;;;5.83;100.00;97801.72;5052058;28;20060;-77
2022/12/06 02:05:31;;;;;;;1999.90;999.90;;;;;;;5.83;100.00;97788.97;5052341;28;20079;-78
2022/12/06 02:07:59;;;;;;;1999.90;999.90;;;;;;;5.90;100.00;97788.75;5052146;28;20469;-78
2022/12/06 02:10:25;;;;;;;1999.90;999.90;;;;;;;5.99;100.00;97797.16;5055107;28;20032;-84
2022/12/06 02:12:55;;;;;;;1999.90;999.90;;;;;;;6.01;100.00;97798.56;5064079;28;20052;-84
2022/12/06 02:15:47;;;;;;;1999.90;999.90;;;;;;;5.89;100.00;97804.22;5064839;28;20028;-85
2022/12/06 02:18:33;;;;;;;1999.90;999.90;;;;;;;5.87;100.00;97805.56;5065570;28;20055;-83
2022/12/06 02:21:12;;;;;;;1999.90;999.90;;;;;;;5.84;100.00;97782.47;5062829;28;20105;-83
2022/12/06 02:23:55;;;;;;;1999.90;999.90;;;;;;;5.96;100.00;97798.53;5063236;28;20032;-82
2022/12/06 02:26:47;;;;;;;1999.90;999.90;;;;;;;5.89;100.00;97795.25;5061219;28;20025;-86
2022/12/06 02:29:34;;;;;;;1999.90;999.90;;;;;;;5.84;100.00;97806.09;5057252;28;20112;-83
2022/12/06 02:32:25;;;;;;;1999.90;999.90;;;;;;;5.90;100.00;97796.91;5059267;28;20033;-84
2022/12/06 02:34:59;;;;;;;1999.90;999.90;;;;;;;5.88;100.00;97785.50;5056138;28;20029;-82
2022/12/06 02:37:31;;;;;;;1999.90;999.90;;;;;;;5.87;100.00;97809.09;5057403;28;20114;-85
2022/12/06 02:39:57;;;;;;;1999.90;999.90;;;;;;;5.95;100.00;97802.34;5055527;28;20025;-80
2022/12/06 02:42:27;;;;;;;1999.90;999.90;;;;;;;5.93;100.00;97799.06;5052921;28;20060;-80
2022/12/06 02:44:56;;;;;;;1999.90;999.90;;;;;;;5.92;100.00;97790.09;5052502;28;20151;-79
2022/12/06 02:47:28;;;;;;;1999.90;999.90;;;;;;;5.92;100.00;97795.53;5054433;28;20112;-80
2022/12/06 02:49:55;;;;;;;1999.90;999.90;;;;;;;5.90;100.00;97792.28;5052986;28;20032;-80
2022/12/06 02:52:24;;;;;;;1999.90;999.90;;;;;;;5.85;100.00;97802.28;5051661;28;20082;-80
2022/12/06 02:54:53;;;;;;;1999.90;999.90;;;;;;;5.91;100.00;97790.38;5052834;28;20439;-80
2022/12/06 02:57:32;;;;;;;1999.90;999.90;;;;;;;5.98;100.00;97799.09;5055061;28;20043;-81
2022/12/06 02:59:57;;;;;;;1999.90;999.90;;;;;;;5.87;100.00;97806.41;5059145;28;20037;-83
2022/12/06 03:02:23;;;;;;;1999.90;999.90;;;;;;;5.94;100.00;97811.56;5058065;28;20044;-82
2022/12/06 03:05:06;;;;;;;1999.90;999.90;;;;;;;5.93;100.00;97810.75;5057562;28;20049;-83
2022/12/06 03:07:38;;;;;;;1999.90;999.90;;;;;;;5.88;100.00;97807.22;5054918;28;20385;-82
2022/12/06 03:10:38;;;;;;;1999.90;999.90;;;;;;;5.82;100.00;97806.38;5053032;28;20109;-84
2022/12/06 03:13:21;;;;;;;1999.90;999.90;;;;;;;5.86;100.00;97801.22;5050741;28;20029;-76
2022/12/06 03:16:14;;;;;;;1999.90;999.90;;;;;;;5.93;100.00;97796.34;5050745;28;20029;-75
2022/12/06 03:18:49;;;;;;;1999.90;999.90;;;;;;;5.91;100.00;97804.78;5051237;28;20021;-78
2022/12/06 03:21:22;;;;;;;1999.90;999.90;;;;;;;5.99;100.00;97814.28;5050375;28;20044;-76
2022/12/06 03:23:50;;;;;;;1999.90;999.90;;;;;;;5.88;100.00;97813.47;5050351;28;20036;-76
2022/12/06 03:26:20;;;;;;;1999.90;999.90;;;;;;;5.85;100.00;97824.00;5050307;28;20112;-76
2022/12/06 03:28:48;;;;;;;1999.90;999.90;;;;;;;5.91;100.00;97820.25;5049219;28;20032;-77
2022/12/06 03:31:14;;;;;;;1999.90;999.90;;;;;;;5.92;100.00;97813.72;5049962;28;20039;-80
2022/12/06 03:33:46;;;;;;;1999.90;999.90;;;;;;;5.92;100.00;97819.13;5054747;28;20086;-80
2022/12/06 03:36:14;;;;;;;1999.90;999.90;;;;;;;6.00;100.00;97815.91;5054128;28;20033;-77
2022/12/06 03:38:46;;;;;;;1999.90;999.90;;;;;;;5.96;100.00;97817.53;5054261;28;20021;-77
2022/12/06 03:41:15;;;;;;;1999.90;999.90;;;;;;;6.01;100.00;97825.69;5054181;28;20051;-77
2022/12/06 03:43:41;;;;;;;1999.90;999.90;;;;;;;6.10;100.00;97837.66;5054318;28;20025;-77
2022/12/06 03:46:18;;;;;;;1999.90;999.90;;;;;;;6.04;100.00;97830.59;5053992;28;20025;-77
2022/12/06 03:48:49;;;;;;;1999.90;999.90;;;;;;;5.98;100.00;97828.94;5054397;28;20385;-76
2022/12/06 03:51:21;;;;;;;1999.90;999.90;;;;;;;5.92;100.00;97841.69;5053870;28;20134;-79
2022/12/06 03:53:52;;;;;;;1999.90;999.90;;;;;;;6.00;100.00;97840.34;5053693;28;20047;-77
2022/12/06 03:56:18;;;;;;;1999.90;999.90;;;;;;;5.86;100.00;97839.22;5053802;28;20452;-76
2022/12/06 03:58:44;;;;;;;1999.90;999.90;;;;;;;5.99;100.00;97846.84;5053755;28;20025;-76
2022/12/06 04:01:10;;;;;;;1999.90;999.90;;;;;;;5.95;100.00;97839.53;5053728;28;20032;-77
2022/12/06 04:03:37;;;;;;;1999.90;999.90;;;;;;;5.97;100.00;97838.16;5053642;28;20029;-76
2022/12/06 04:06:04;;;;;;;1999.90;999.90;;;;;;;6.01;100.00;97835.75;5053535;28;20072;-77
2022/12/06 04:08:29;;;;;;;1999.90;999.90;;;;;;;6.01;100.00;97828.41;5053753;28;20492;-77
2022/12/06 04:10:55;;;;;;;1999.90;999.90;;;;;;;5.86;100.00;97825.66;5053421;28;20033;-76
2022/12/06 04:13:20;;;;;;;1999.90;999.90;;;;;;;5.97;100.00;97838.16;5053292;28;20450;-76
2022/12/06 04:15:45;;;;;;;1999.90;999.90;;;;;;;5.90;100.00;97824.03;5053452;28;20021;-79
2022/12/06 04:18:13;;;;;;;1999.90;999.90;;;;;;;6.00;100.00;97836.81;5053816;28;20516;-77
2022/12/06 04:23:23;;;;;;;1999.90;999.90;;;;;;;5.92;100.00;97835.44;5059521;28;20051;-77
2022/12/06 04:25:48;;;;;;;1999.90;999.90;;;;;;;5.89;100.00;97830.53;5057862;28;20024;-76
2022/12/06 04:39:11;;;;;;;1999.90;999.90;;;;;;;5.81;100.00;97860.91;5052681;28;20393;-80
2022/12/06 04:44:20;;;;;;;1999.90;999.90;;;;;;;5.69;100.00;97863.03;5052615;28;20039;-77
2022/12/06 04:46:46;;;;;;;1999.90;999.90;;;;;;;5.67;100.00;97859.78;5052694;28;20029;-78
2022/12/06 04:49:11;;;;;;;1999.90;999.90;;;;;;;5.55;100.00;97840.16;5053213;28;20029;-76
2022/12/06 04:51:37;;;;;;;1999.90;999.90;;;;;;;5.60;100.00;97862.72;5052625;28;20128;-76
2022/12/06 04:54:02;;;;;;;1999.90;999.90;;;;;;;5.44;100.00;97849.38;5051024;28;20110;-76
2022/12/06 04:56:28;;;;;;;1999.90;999.90;;;;;;;5.28;100.00;97851.19;5051215;28;20108;-80
2022/12/06 04:58:53;;;;;;;1999.90;999.90;;;;;;;5.31;100.00;97845.25;5052685;28;20525;-76
2022/12/06 05:01:18;;;;;;;1999.90;999.90;;;;;;;5.25;100.00;97851.72;5052293;28;20033;-75
2022/12/06 05:03:44;;;;;;;1999.90;999.90;;;;;;;5.15;100.00;97866.03;5052447;28;20053;-76
2022/12/06 05:06:09;;;;;;;1999.90;999.90;;;;;;;5.04;100.00;97860.84;5052273;28;20512;-76
2022/12/06 05:08:35;;;;;;;1999.90;999.90;;;;;;;4.93;100.00;97862.66;5052554;28;20032;-76
2022/12/06 05:11:00;;;;;;;1999.90;999.90;;;;;;;4.92;100.00;97863.72;5052637;28;20025;-78
2022/12/06 05:13:26;;;;;;;1999.90;999.90;;;;;;;4.79;100.00;97865.00;5042840;28;20041;-79
2022/12/06 05:15:54;;;;;;;1999.90;999.90;;;;;;;4.82;100.00;97861.75;5047529;28;20035;-76
2022/12/06 05:18:19;;;;;;;1999.90;999.90;;;;;;;4.77;100.00;97850.91;5050224;28;20048;-78
2022/12/06 05:20:45;;;;;;;1999.90;999.90;;;;;;;4.51;100.00;97850.97;5033201;28;20056;-78
2022/12/06 05:23:10;;;;;;;1999.90;999.90;;;;;;;4.49;100.00;97858.53;5034090;28;20025;-77
2022/12/06 05:25:36;;;;;;;1999.90;999.90;;;;;;;4.43;100.00;97846.03;5034664;28;20069;-76
2022/12/06 05:28:01;;;;;;;1999.90;999.90;;;;;;;4.36;100.00;97850.84;5033006;28;20031;-78
2022/12/06 05:30:27;;;;;;;1999.90;999.90;;;;;;;4.41;100.00;97846.31;5033596;28;20025;-77
2022/12/06 05:32:52;;;;;;;1999.90;999.90;;;;;;;4.52;100.00;97858.84;5051435;28;20047;-78
2022/12/06 05:35:17;;;;;;;1999.90;999.90;;;;;;;4.57;100.00;97866.19;5051691;28;20032;-77
2022/12/06 05:37:43;;;;;;;1999.90;999.90;;;;;;;4.62;100.00;97866.22;5051549;28;20211;-77
2022/12/06 05:40:08;;;;;;;1999.90;999.90;;;;;;;4.73;100.00;97866.03;5051420;28;20029;-83
2022/12/06 05:42:34;;;;;;;1999.90;999.90;;;;;;;4.83;100.00;97876.13;5051243;28;20039;-77
2022/12/06 05:44:59;;;;;;;1999.90;999.90;;;;;;;4.78;100.00;97867.97;5049795;28;20033;-78
2022/12/06 05:47:25;;;;;;;1999.90;999.90;;;;;;;4.67;100.00;97875.19;5051582;28;20040;-78
2022/12/06 05:49:50;;;;;;;1999.90;999.90;;;;;;;4.69;100.00;97877.66;5051287;28;20424;-77
2022/12/06 05:52:16;;;;;;;1999.90;999.90;;;;;;;4.64;100.00;97880.31;5051151;28;20025;-77
2022/12/06 05:54:41;;;;;;;1999.90;999.90;;;;;;;4.69;100.00;97889.31;5051387;28;20519;-77
2022/12/06 05:57:06;;;;;;;1999.90;999.90;;;;;;;4.77;100.00;97888.81;5051465;28;20036;-77
2022/12/06 05:59:32;;;;;;;1999.90;999.90;;;;;;;4.90;100.00;97895.69;5053848;28;20033;-79
2022/12/06 06:01:57;;;;;;;1999.90;999.90;;;;;;;4.93;100.00;97881.63;5051285;28;20049;-77
2022/12/06 06:04:23;;;;;;;1999.90;999.90;;;;;;;4.99;100.00;97894.13;5050582;28;20056;-77
2022/12/06 06:06:48;;;;;;;1999.90;999.90;;;;;;;4.96;100.00;97893.81;5050800;28;20477;-78
2022/12/06 06:09:13;;;;;;;1999.90;999.90;;;;;;;5.01;100.00;97891.16;5051104;28;20135;-78
2022/12/06 06:11:40;;;;;;;1999.90;999.90;;;;;;;5.12;100.00;97901.81;5053283;28;20036;-79
2022/12/06 06:14:05;;;;;;;1999.90;999.90;;;;;;;5.20;100.00;97903.22;5051384;28;20029;-76
2022/12/06 06:16:31;;;;;;;1999.90;999.90;;;;;;;5.12;100.00;97895.56;5049773;28;20031;-77
2022/12/06 06:18:57;;;;;;;1999.90;999.90;;;;;;;5.15;100.00;97900.47;5049969;28;20037;-77
2022/12/06 06:21:25;;;;;;;1999.90;999.90;;;;;;;5.13;100.00;97898.03;5050160;28;20386;-75
2022/12/06 06:23:50;;;;;;;1999.90;999.90;;;;;;;5.22;100.00;97910.00;5050288;28;20051;-74
2022/12/06 06:26:15;;;;;;;1999.90;999.90;;;;;;;5.13;100.00;97908.06;5049824;28;20052;-76
2022/12/06 06:28:41;;;;;;;1999.90;999.90;;;;;;;5.12;100.00;97917.25;5049195;28;20017;-75
2022/12/06 06:31:07;;;;;;;1999.90;999.90;;;;;;;5.14;100.00;97907.78;5050223;28;20033;-77
2022/12/06 06:33:32;;;;;;;1999.90;999.90;;;;;;;5.10;100.00;97908.56;5055899;28;20041;-75
2022/12/06 06:35:58;;;;;;;1999.90;999.90;;;;;;;5.08;100.00;97906.09;5054736;28;20049;-75
2022/12/06 06:38:23;;;;;;;1999.90;999.90;;;;;;;5.06;100.00;97902.03;5050754;28;20071;-77
2022/12/06 06:40:49;;;;;;;1999.90;999.90;;;;;;;4.89;100.00;97904.88;5049225;28;20025;-75
2022/12/06 06:43:17;;;;;;;1999.90;999.90;;;;;;;4.84;100.00;97902.16;5052510;28;20517;-83
2022/12/06 06:46:05;;;;;;;1999.90;999.90;;;;;;;5.04;100.00;97909.63;5062459;28;20386;-83
2022/12/06 06:48:32;;;;;;;1999.90;999.90;;;;;;;4.92;100.00;97898.16;5056013;28;20450;-81
2022/12/06 06:51:06;;;;;;;1999.90;999.90;;;;;;;5.00;100.00;97912.03;5055545;28;20033;-81
2022/12/06 06:53:32;;;;;;;1999.90;999.90;;;;;;;4.95;100.00;97906.56;5052469;28;20417;-79
2022/12/06 06:55:57;;;;;;;1999.90;999.90;;;;;;;5.00;100.00;97909.31;5054079;28;20048;-83
2022/12/06 06:58:23;;;;;;;1999.90;999.90;;;;;;;4.98;100.00;97910.66;5054932;28;20030;-75
2022/12/06 07:00:56;;;;;;;1999.90;999.90;;;;;;;5.08;100.00;97914.25;5052612;28;20033;-75
2022/12/06 07:03:22;;;;;;;1999.90;999.90;;;;;;;5.23;100.00;97914.34;5049573;28;20035;-78
2022/12/06 07:05:56;;;;;;;1999.90;999.90;;;;;;;5.31;100.00;97913.84;5050143;28;20044;-76
2022/12/06 07:08:22;;;;;;;1999.90;999.90;;;;;;;5.39;100.00;97924.19;5040540;28;20108;-75
2022/12/06 07:10:48;;;;;;;1999.90;999.90;;;;;;;5.40;100.00;97931.25;5036122;28;20121;-75
2022/12/06 07:13:14;;;;;;;1999.90;999.90;;;;;;;5.39;100.00;97935.03;5034054;28;20080;-75
2022/12/06 07:15:40;;;;;;;1999.90;999.90;;;;;;;5.41;100.00;97940.22;5034324;28;20390;-75
2022/12/06 07:18:06;;;;;;;1999.90;999.90;;;;;;;5.58;100.00;97943.53;5034604;28;20030;-75
2022/12/06 07:20:31;;;;;;;1999.90;999.90;;;;;;;5.85;100.00;97951.56;5034341;28;20032;-76
2022/12/06 07:22:57;;;;;;;1999.90;999.90;;;;;;;5.95;100.00;97943.50;5034043;28;20863;-76
2022/12/06 07:25:22;;;;;;;1999.90;999.90;;;;;;;5.97;100.00;97952.19;5032460;28;20025;-76
2022/12/06 07:27:47;;;;;;;1999.90;999.90;;;;;;;5.85;100.00;97954.28;5037434;28;20029;-77
2022/12/06 07:30:13;;;;;;;1999.90;999.90;;;;;;;5.76;100.00;97945.81;5053943;28;20017;-74
2022/12/06 07:32:38;;;;;;;1999.90;999.90;;;;;;;5.80;100.00;97951.53;5053508;28;20391;-76
2022/12/06 07:35:04;;;;;;;1999.90;999.90;;;;;;;5.79;100.00;97949.91;5052297;28;20040;-76
2022/12/06 07:37:29;;;;;;;1999.90;999.90;;;;;;;5.88;100.00;97959.22;5053441;28;20031;-78
2022/12/06 07:39:55;;;;;;;1999.90;999.90;;;;;;;6.04;100.00;97958.19;5053074;28;20039;-77
2022/12/06 07:45:07;;;;;;;1999.90;999.90;;;;;;;6.25;100.00;97954.44;5053699;28;20412;-79
2022/12/06 07:47:39;;;;;;;1999.90;999.90;;;;;;;6.28;100.00;97953.91;5053696;28;20056;-76
2022/12/06 07:50:07;;;;;;;1999.90;999.90;;;;;;;6.33;100.00;97948.47;5053828;28;20017;-76
2022/12/06 07:52:34;;;;;;;1999.90;999.90;;;;;;;6.39;100.00;97950.13;5053547;28;20104;-76
2022/12/06 07:55:01;;;;;;;1999.90;999.90;;;;;;;6.60;100.00;97955.59;5053526;28;20116;-76
2022/12/06 07:57:27;;;;;;;1999.90;999.90;;;;;;;6.55;100.00;97947.47;5053630;28;20064;-76
2022/12/06 07:59:52;;;;;;;1999.90;999.90;;;;;;;6.51;100.00;97954.50;5053645;28;20527;-77
2022/12/06 08:02:20;;;;;;;1999.90;999.90;;;;;;;6.58;100.00;97958.56;5053471;28;20029;-76
2022/12/06 08:04:46;;;;;;;1999.90;999.90;;;;;;;6.58;100.00;97955.84;5053068;28;20049;-76
2022/12/06 08:07:12;;;;;;;1999.90;999.90;;;;;;;6.52;100.00;97953.41;5053508;28;20128;-76
2022/12/06 08:09:37;;;;;;;1999.90;999.90;;;;;;;6.23;100.00;97945.75;5035393;28;20445;-77
2022/12/06 08:12:03;;;;;;;1999.90;999.90;;;;;;;6.06;100.00;97950.59;5053038;28;20021;-76
2022/12/06 08:14:28;;;;;;;1999.90;999.90;;;;;;;6.09;100.00;97960.91;5053186;28;20033;-76
2022/12/06 08:16:53;;;;;;;1999.90;999.90;;;;;;;6.11;100.00;97963.38;5051730;28;20033;-77
2022/12/06 08:19:19;;;;;;;1999.90;999.90;;;;;;;6.21;100.00;97971.53;5052325;28;20025;-76
2022/12/06 08:21:44;;;;;;;1999.90;999.90;;;;;;;6.32;100.00;97965.88;5052816;28;20116;-78
2022/12/06 08:24:10;;;;;;;1999.90;999.90;;;;;;;6.47;100.00;97963.19;5052972;28;20493;-79
2022/12/06 08:26:36;;;;;;;1999.90;999.90;;;;;;;6.37;100.00;97968.59;5052997;28;20581;-80
2022/12/06 08:29:02;;;;;;;1999.90;999.90;;;;;;;6.44;100.00;97969.16;5053445;28;20111;-75
2022/12/06 08:31:29;;;;;;;1999.90;999.90;;;;;;;6.34;100.00;97980.00;5053427;28;20029;-78
2022/12/06 08:33:55;;;;;;;1999.90;999.90;;;;;;;6.22;100.00;97965.03;5053476;28;20067;-77
2022/12/06 08:36:22;;;;;;;1999.90;999.90;;;;;;;6.47;100.00;97974.06;5054412;28;20086;-80
2022/12/06 08:38:48;;;;;;;1999.90;999.90;;;;;;;6.47;100.00;97967.81;5054786;28;20025;-80
2022/12/06 08:44:00;;;;;;;1999.90;999.90;;;;;;;6.83;100.00;97974.91;5056556;28;20083;-77
2022/12/06 08:46:28;;;;;;;1999.90;999.90;;;;;;;6.85;100.00;97975.47;5052962;28;20025;-76
2022/12/06 08:48:53;;;;;;;1999.90;999.90;;;;;;;7.05;100.00;97969.22;5053050;28;20037;-78
2022/12/06 08:51:19;;;;;;;1999.90;999.90;;;;;;;6.97;100.00;97972.50;5053193;28;20027;-76
2022/12/06 08:53:44;;;;;;;1999.90;999.90;;;;;;;6.85;100.00;97982.81;5053051;28;20534;-77
2022/12/06 08:56:09;;;;;;;1999.90;999.90;;;;;;;6.90;100.00;97977.38;5052949;28;20061;-77
2022/12/06 08:58:35;;;;;;;1999.90;999.90;;;;;;;6.96;100.00;97982.53;5054220;28;20029;-79
2022/12/06 09:01:00;;;;;;;1999.90;999.90;;;;;;;6.98;100.00;97985.00;5051702;28;20040;-77
2022/12/06 09:03:26;;;;;;;1999.90;999.90;;;;;;;6.94;100.00;97983.91;5052999;28;20389;-76
2022/12/06 09:05:51;;;;;;;1999.90;999.90;;;;;;;6.86;100.00;97987.97;5052427;28;20402;-77
2022/12/06 09:08:16;;;;;;;1999.90;999.90;;;;;;;6.82;100.00;97986.91;5052647;28;20028;-76
2022/12/06 09:10:42;;;;;;;1999.90;999.90;;;;;;;6.82;100.00;97986.91;5052445;28;20041;-76
2022/12/06 09:13:08;;;;;;;1999.90;999.90;;;;;;;6.76;100.00;97987.16;5052645;28;20074;-77
2022/12/06 09:15:33;;;;;;;1999.90;999.90;;;;;;;6.67;100.00;97984.13;5051515;28;20029;-78
2022/12/06 09:17:59;;;;;;;1999.90;999.90;;;;;;;6.79;100.00;98000.22;5051570;28;20455;-75
2022/12/06 09:20:25;;;;;;;1999.90;999.90;;;;;;;6.80;100.00;98001.81;5052559;28;20483;-77
2022/12/06 09:22:50;;;;;;;1999.90;999.90;;;;;;;6.94;100.00;98002.94;5052335;28;20124;-77
2022/12/06 09:25:16;;;;;;;1999.90;999.90;;;;;;;6.70;100.00;97999.09;5051552;28;20075;-76
2022/12/06 09:27:42;;;;;;;1999.90;999.90;;;;;;;6.53;100.00;98003.94;5052454;28;20060;-78
2022/12/06 09:30:09;;;;;;;1999.90;999.90;;;;;;;6.66;100.00;97996.09;5051610;28;20104;-77
2022/12/06 09:32:34;;;;;;;1999.90;999.90;;;;;;;6.51;100.00;97996.09;5052433;28;20025;-76
2022/12/06 09:35:00;;;;;;;1999.90;999.90;;;;;;;6.40;100.00;97988.97;5052781;28;20044;-76
2022/12/06 09:37:25;;;;;;;1999.90;999.90;;;;;;;6.37;100.00;97990.34;5052863;28;20063;-76
2022/12/06 09:39:56;;;;;;;1999.90;999.90;;;;;;;6.31;100.00;97994.13;5052810;28;20025;-77
2022/12/06 09:42:24;;;;;;;1999.90;999.90;;;;;;;6.36;100.00;97985.97;5053566;28;20028;-79
2022/12/06 09:44:58;;;;;;;1999.90;999.90;;;;;;;6.64;100.00;97984.66;5062332;28;20588;-76
2022/12/06 09:47:47;;;;;;;1999.90;999.90;;;;;;;6.49;100.00;97992.78;5059651;28;20033;-77
2022/12/06 09:50:34;;;;;;;1999.90;999.90;;;;;;;6.66;100.00;97987.13;5051608;28;20027;-76
2022/12/06 09:53:11;;;;;;;1999.90;999.90;;;;;;;6.64;100.00;97979.22;5054957;28;20043;-77
2022/12/06 09:55:55;;;;;;;1999.90;999.90;;;;;;;6.66;100.00;97976.25;5059796;28;20033;-78
2022/12/06 09:58:43;;;;;;;1999.90;999.90;;;;;;;6.65;100.00;97971.91;5061653;28;20041;-77
2022/12/06 10:01:21;;;;;;;1999.90;999.90;;;;;;;6.45;100.00;97980.84;5060559;28;20035;-77
2022/12/06 10:04:20;;;;;;;1999.90;999.90;;;;;;;6.58;100.00;97977.59;5061140;28;20092;-76
2022/12/06 10:07:00;;;;;;;1999.90;999.90;;;;;;;6.31;100.00;97968.84;5059783;28;20056;-80
2022/12/06 10:09:38;;;;;;;1999.90;999.90;;;;;;;6.37;100.00;97979.47;5061198;28;20039;-77
2022/12/06 10:12:34;;;;;;;1999.90;999.90;;;;;;;6.30;100.00;97970.75;5059694;28;20029;-78
2022/12/06 10:15:02;;;;;;;1999.90;999.90;;;;;;;6.26;100.00;97988.69;5057430;28;20032;-78
2022/12/06 10:17:41;;;;;;;1999.90;999.90;;;;;;;6.34;100.00;97979.19;5054234;28;20043;-77
2022/12/06 10:20:25;;;;;;;1999.90;999.90;;;;;;;6.27;100.00;97978.59;5049964;28;20071;-78
2022/12/06 10:23:09;;;;;;;1999.90;999.90;;;;;;;6.40;100.00;97975.38;5051038;28;20086;-76
2022/12/06 10:25:51;;;;;;;1999.90;999.90;;;;;;;6.32;100.00;97968.59;5049637;28;20040;-78
2022/12/06 10:28:41;;;;;;;1999.90;999.90;;;;;;;6.26;100.00;97964.25;5057014;28;20036;-77
2022/12/06 10:31:22;;;;;;;1999.90;999.90;;;;;;;6.27;100.00;97976.72;5057082;28;20115;-76
2022/12/06 10:34:06;;;;;;;1999.90;999.90;;;;;;;6.27;100.00;97974.00;5050854;28;20561;-78
2022/12/06 10:36:47;;;;;;;1999.90;999.90;;;;;;;6.27;100.00;97963.13;5050869;28;20074;-77
2022/12/06 10:39:27;;;;;;;1999.90;999.90;;;;;;;6.29;100.00;97969.13;5051128;28;20036;-78
2022/12/06 10:42:00;;;;;;;1999.90;999.90;;;;;;;6.40;100.00;97962.63;5050492;28;20414;-77
2022/12/06 10:44:40;;;;;;;1999.90;999.90;;;;;;;6.55;100.00;97963.75;5052792;28;20052;-78
2022/12/06 10:47:22;;;;;;;1999.90;999.90;;;;;;;6.64;100.00;97960.22;5057301;28;20025;-79
2022/12/06 10:50:06;;;;;;;1999.90;999.90;;;;;;;6.73;100.00;97955.09;5054943;28;20024;-77
2022/12/06 10:52:43;;;;;;;1999.90;999.90;;;;;;;6.76;100.00;97946.38;5053889;28;20052;-76
2022/12/06 10:55:08;;;;;;;1999.90;999.90;;;;;;;6.73;100.00;97946.94;5050574;28;21018;-76
2022/12/06 10:57:55;;;;;;;1999.90;999.90;;;;;;;6.75;100.00;97950.19;5050239;28;20028;-78
2022/12/06 11:00:30;;;;;;;1999.90;999.90;;;;;;;6.88;100.00;97945.03;5050859;28;20036;-76
2022/12/06 11:03:20;;;;;;;1999.90;999.90;;;;;;;6.95;100.00;97947.47;5050577;28;20033;-77
2022/12/06 11:05:50;;;;;;;1999.90;999.90;;;;;;;7.08;100.00;97944.19;5050142;28;20052;-77
2022/12/06 11:08:38;;;;;;;1999.90;999.90;;;;;;;7.10;100.00;97939.31;5050393;28;20037;-76
2022/12/06 11:11:10;;;;;;;1999.90;999.90;;;;;;;7.08;100.00;97936.03;5050301;28;20037;-77
2022/12/06 11:13:55;;;;;;;1999.90;999.90;;;;;;;7.18;100.00;97936.03;5050217;28;20025;-77
2022/12/06 11:16:29;;;;;;;1999.90;999.90;;;;;;;7.11;100.00;97930.03;5050547;28;20040;-77
2022/12/06 11:18:59;;;;;;;1999.90;999.90;;;;;;;7.02;100.00;97934.41;5050482;28;20025;-76
2022/12/06 11:21:43;;;;;;;1999.90;999.90;;;;;;;6.99;100.00;97924.91;5050409;28;20039;-77
2022/12/06 11:24:19;;;;;;;1999.90;999.90;;;;;;;7.08;100.00;97929.81;5050113;28;20048;-76
2022/12/06 11:27:07;;;;;;;1999.90;999.90;;;;;;;7.11;100.00;97930.03;5050049;28;20124;-76